createdAt,value
2022-12-08T00:00:25.454Z,99054.34
2022-12-08T00:03:50.964Z,99057.69
2022-12-08T00:07:30.530Z,99054.31
2022-12-08T00:10:52.693Z,99051.69
2022-12-08T00:14:14.851Z,99049.09
2022-12-08T00:17:36.756Z,99052.53
2022-12-08T00:21:00.729Z,99049.94
2022-12-08T00:24:23.650Z,99050.78
2022-12-08T00:27:45.717Z,99052.44
2022-12-08T00:31:11.900Z,99037.13
2022-12-08T00:34:34.813Z,99049.03
2022-12-08T00:38:01.091Z,99032.84
2022-12-08T00:41:45.564Z,99029.44
2022-12-08T00:45:08.344Z,99024.34
2022-12-08T00:48:30.336Z,99035.34
2022-12-08T00:51:51.784Z,99041.25
2022-12-08T00:55:14.950Z,99029.41
2022-12-08T00:58:36.678Z,99032.72
2022-12-08T01:01:58.427Z,99028.41
2022-12-08T01:05:20.729Z,99022.47
2022-12-08T01:08:43.291Z,99033.47
2022-12-08T01:12:07.632Z,99030.03
2022-12-08T01:15:29.390Z,99030.03
2022-12-08T01:18:51.542Z,99030.03
2022-12-08T01:22:13.512Z,99032.59
2022-12-08T01:25:36.358Z,99027.50
2022-12-08T01:29:00.655Z,99020.66
2022-12-08T01:32:22.724Z,99026.53
2022-12-08T01:35:44.583Z,99016.31
2022-12-08T01:39:08.015Z,99018.84
2022-12-08T01:42:30.179Z,99004.38
2022-12-08T01:45:53.182Z,99014.53
2022-12-08T01:49:18.805Z,99011.13
2022-12-08T01:52:42.809Z,99012.75
2022-12-08T01:56:10.206Z,99005.13
2022-12-08T01:59:34.240Z,99006.75
2022-12-08T02:03:00.745Z,99009.28
2022-12-08T02:06:22.519Z,99000.81
2022-12-08T02:09:45.555Z,99008.41
2022-12-08T02:13:12.725Z,99003.25
2022-12-08T02:16:44.334Z,98977.09
2022-12-08T02:20:53.671Z,99002.31
2022-12-08T02:24:24.906Z,98996.31
2022-12-08T02:28:01.142Z,99003.09
2022-12-08T02:31:36.552Z,98987.81
2022-12-08T02:35:04.333Z,98990.28
2022-12-08T02:38:39.218Z,98991.97
2022-12-08T02:42:09.851Z,98982.53
2022-12-08T02:45:35.343Z,98986.75
2022-12-08T02:48:58.544Z,98985.91
2022-12-08T02:52:45.177Z,98974.72
2022-12-08T02:56:22.549Z,98978.97
2022-12-08T03:00:02.440Z,98969.53
2022-12-08T03:03:33.238Z,98980.59
2022-12-08T03:07:05.299Z,98978.78
2022-12-08T03:10:33.933Z,98980.44
2022-12-08T03:13:59.373Z,98976.13
2022-12-08T03:17:24.763Z,98972.72
2022-12-08T03:20:48.917Z,98981.97
2022-12-08T03:24:12.299Z,98981.91
2022-12-08T03:27:35.651Z,98978.47
2022-12-08T03:31:00.562Z,98972.50
2022-12-08T03:34:25.251Z,98981.69
2022-12-08T03:37:47.195Z,98973.97
2022-12-08T03:41:21.311Z,98976.56
2022-12-08T03:44:44.254Z,98970.47
2022-12-08T03:48:06.618Z,98981.41
2022-12-08T03:51:28.514Z,98966.13
2022-12-08T03:54:50.579Z,98982.91
2022-12-08T03:58:12.689Z,98981.97
2022-12-08T04:01:36.021Z,98979.34
2022-12-08T04:04:58.040Z,98969.88
2022-12-08T04:08:20.116Z,98975.69
2022-12-08T04:11:42.159Z,98974.75
2022-12-08T04:15:04.094Z,98971.22
2022-12-08T04:18:27.494Z,98970.22
2022-12-08T04:21:49.210Z,98965.88
2022-12-08T04:25:11.503Z,98962.34
2022-12-08T04:28:33.861Z,98948.63
2022-12-08T04:31:55.939Z,98949.41
2022-12-08T04:35:19.123Z,98952.66
2022-12-08T04:38:40.870Z,98951.75
2022-12-08T04:42:02.785Z,98945.66
2022-12-08T04:45:24.987Z,98943.00
2022-12-08T04:48:46.886Z,98953.09
2022-12-08T04:52:10.203Z,98936.81
2022-12-08T04:55:32.149Z,98934.31
2022-12-08T04:58:56.913Z,98949.44
2022-12-08T05:02:18.882Z,98947.69
2022-12-08T05:05:41.046Z,98949.34
2022-12-08T05:09:04.870Z,98956.88
2022-12-08T05:12:27.229Z,98955.13
2022-12-08T05:15:49.594Z,98961.03
2022-12-08T05:19:11.516Z,98953.34
2022-12-08T05:22:33.338Z,98962.56
2022-12-08T05:25:56.367Z,98966.72
2022-12-08T05:29:18.513Z,98956.47
2022-12-08T05:32:40.566Z,98960.59
2022-12-08T05:36:02.313Z,98963.00
2022-12-08T05:39:27.300Z,98959.59
2022-12-08T05:42:50.394Z,98958.63
2022-12-08T05:46:12.340Z,98949.94
2022-12-08T05:49:34.004Z,98954.19
2022-12-08T05:52:55.799Z,98959.38
2022-12-08T05:56:18.052Z,98961.03
2022-12-08T05:59:43.941Z,98967.00
2022-12-08T06:03:05.700Z,98955.19
2022-12-08T06:06:28.598Z,98949.06
2022-12-08T06:09:50.419Z,98959.28
2022-12-08T06:13:13.305Z,98962.66
2022-12-08T06:16:39.788Z,98968.66
2022-12-08T06:20:01.539Z,98972.81
2022-12-08T06:23:23.347Z,98967.75
2022-12-08T06:26:49.347Z,98965.13
2022-12-08T06:30:11.435Z,98971.06
2022-12-08T06:33:34.895Z,98975.25
2022-12-08T06:36:56.590Z,98973.41
2022-12-08T06:40:18.671Z,98970.84
2022-12-08T06:43:41.176Z,98971.75
2022-12-08T06:47:03.322Z,98969.03
2022-12-08T06:50:26.676Z,98972.41
2022-12-08T06:53:48.694Z,98969.78
2022-12-08T06:57:10.627Z,98963.00
2022-12-08T07:00:32.740Z,98965.47
2022-12-08T07:03:54.998Z,98972.16
2022-12-08T07:07:18.087Z,98961.00
2022-12-08T07:10:40.452Z,98970.22
2022-12-08T07:14:02.054Z,98969.38
2022-12-08T07:17:24.235Z,98974.34
2022-12-08T07:20:46.224Z,98967.56
2022-12-08T07:24:10.030Z,98976.75
2022-12-08T07:27:31.627Z,98978.31
2022-12-08T07:30:53.203Z,98968.97
2022-12-08T07:34:15.179Z,98976.41
2022-12-08T07:37:38.469Z,98975.41
2022-12-08T07:41:02.364Z,98960.75
2022-12-08T07:44:24.293Z,98974.19
2022-12-08T07:47:46.152Z,98971.41
2022-12-08T07:51:08.431Z,98978.03
2022-12-08T07:54:30.391Z,98966.94
2022-12-08T07:57:53.951Z,98972.72
2022-12-08T08:01:24.452Z,98970.31
2022-12-08T08:04:46.510Z,98965.97
2022-12-08T08:08:08.638Z,98970.88
2022-12-08T08:11:30.795Z,98970.94
2022-12-08T08:14:56.818Z,98970.06
2022-12-08T08:18:18.624Z,98961.53
2022-12-08T08:21:47.421Z,98969.06
2022-12-08T08:25:10.255Z,98962.97
2022-12-08T08:28:32.350Z,98968.03
2022-12-08T08:31:55.747Z,98963.66
2022-12-08T08:35:17.952Z,98945.72
2022-12-08T08:38:40.367Z,98961.81
2022-12-08T08:42:02.047Z,98957.47
2022-12-08T08:45:24.184Z,98953.09
2022-12-08T08:48:47.348Z,98954.75
2022-12-08T08:52:09.320Z,98941.94
2022-12-08T08:55:31.389Z,98957.13
2022-12-08T08:58:55.112Z,98948.53
2022-12-08T09:02:18.495Z,98955.09
2022-12-08T09:05:42.192Z,98962.72
2022-12-08T09:09:03.781Z,98957.47
2022-12-08T09:12:25.827Z,98954.81
2022-12-08T09:15:48.398Z,98948.16
2022-12-08T09:19:12.907Z,98952.25
2022-12-08T09:22:36.431Z,98953.22
2022-12-08T09:25:58.503Z,98947.09
2022-12-08T09:29:20.489Z,98943.69
2022-12-08T09:32:42.306Z,98947.91
2022-12-08T09:36:05.138Z,98933.47
2022-12-08T09:39:28.433Z,98939.28
2022-12-08T09:42:53.416Z,98939.88
2022-12-08T09:46:19.043Z,98945.75
2022-12-08T09:49:47.279Z,98942.25
2022-12-08T09:53:15.418Z,98943.91
2022-12-08T09:56:39.052Z,98944.00
2022-12-08T10:00:05.872Z,98935.41
2022-12-08T10:03:31.895Z,98943.19
2022-12-08T10:07:04.891Z,98941.53
2022-12-08T10:10:35.210Z,98945.94
2022-12-08T10:14:05.371Z,98948.63
2022-12-08T10:17:30.886Z,98944.41
2022-12-08T10:20:53.439Z,98940.16
2022-12-08T10:24:23.915Z,98950.28
2022-12-08T10:27:49.970Z,98952.66
2022-12-08T10:35:37.834Z,98954.38
2022-12-08T10:39:02.549Z,98960.25
2022-12-08T10:42:24.781Z,98961.91
2022-12-08T10:45:47.073Z,98963.59
2022-12-08T10:49:13.424Z,98960.16
2022-12-08T10:52:40.157Z,98959.16
2022-12-08T10:56:16.887Z,98965.88
2022-12-08T10:59:43.486Z,98966.56
2022-12-08T11:03:06.712Z,98966.56
2022-12-08T11:06:33.972Z,98969.97
2022-12-08T11:09:59.363Z,98969.94
2022-12-08T11:13:26.200Z,98975.03
2022-12-08T11:16:48.205Z,98980.91
2022-12-08T11:20:23.259Z,98986.81
2022-12-08T11:23:49.364Z,98983.53
2022-12-08T11:27:11.683Z,98984.97
2022-12-08T11:30:39.882Z,98992.59
2022-12-08T11:34:03.358Z,98997.88
2022-12-08T11:37:34.730Z,99000.66
2022-12-08T11:41:00.784Z,99005.13
2022-12-08T11:44:33.852Z,99015.59
2022-12-08T11:48:07.194Z,99031.72
2022-12-08T11:51:33.544Z,99058.09
2022-12-08T11:55:02.592Z,99062.44
2022-12-08T11:58:30.560Z,99057.56
2022-12-08T12:01:52.863Z,99080.25
2022-12-08T12:05:47.501Z,99105.88
2022-12-08T12:09:19.029Z,99119.28
2022-12-08T12:12:57.254Z,99144.47
2022-12-08T12:16:57.199Z,99147.34
2022-12-08T12:20:25.485Z,99158.63
2022-12-08T12:23:52.992Z,99176.09
2022-12-08T12:27:26.519Z,99179.00
2022-12-08T12:30:57.438Z,99196.28
2022-12-08T12:34:28.212Z,99199.84
2022-12-08T12:37:51.408Z,99224.84
2022-12-08T12:41:18.681Z,99237.69
2022-12-08T12:44:43.658Z,99242.84
2022-12-08T12:48:25.557Z,99253.28
2022-12-08T12:51:49.136Z,99263.47
2022-12-08T12:55:51.278Z,99273.75
2022-12-08T12:59:23.883Z,99284.84
2022-12-08T13:02:49.304Z,99297.69
2022-12-08T13:06:14.757Z,99304.53
2022-12-08T13:09:41.711Z,99308.84
2022-12-08T13:13:18.312Z,99314.03
2022-12-08T13:16:41.599Z,99339.59
2022-12-08T13:20:08.421Z,99355.84
2022-12-08T13:23:44.988Z,99368.66
2022-12-08T13:27:36.899Z,99356.84
2022-12-08T13:31:01.927Z,99363.63
2022-12-08T13:34:31.797Z,99369.63
2022-12-08T13:37:55.940Z,99370.53
2022-12-08T13:41:23.041Z,99377.41
2022-12-08T13:45:22.262Z,99389.34
2022-12-08T13:50:09.846Z,99399.59
2022-12-08T14:00:02.134Z,99434.50
2022-12-08T14:03:23.966Z,99450.69
2022-12-08T14:06:51.259Z,99448.19
2022-12-08T14:10:19.331Z,99459.28
2022-12-08T14:13:41.773Z,99472.06
2022-12-08T14:17:04.963Z,99478.91
2022-12-08T14:20:46.357Z,99486.59
2022-12-08T14:24:16.831Z,99486.63
2022-12-08T14:27:39.556Z,99479.03
2022-12-08T14:31:02.051Z,99486.69
2022-12-08T14:34:23.854Z,99492.66
2022-12-08T14:37:48.428Z,99496.06
2022-12-08T14:41:13.635Z,99508.00
2022-12-08T14:44:41.358Z,99514.84
2022-12-08T14:48:25.626Z,99524.25
2022-12-08T14:51:47.799Z,99527.69
2022-12-08T14:55:09.799Z,99529.38
2022-12-08T14:58:35.588Z,99537.94
2022-12-08T15:02:14.641Z,99534.53
2022-12-08T15:05:36.729Z,99528.66
2022-12-08T15:09:01.008Z,99536.31
2022-12-08T15:12:27.415Z,99548.22
2022-12-08T15:15:53.029Z,99554.22
2022-12-08T15:19:23.331Z,99571.25
2022-12-08T15:22:45.076Z,99579.72
2022-12-08T15:26:07.280Z,99584.84
2022-12-08T15:29:31.049Z,99588.25
2022-12-08T15:32:56.102Z,99582.34
2022-12-08T15:36:18.330Z,99596.78
2022-12-08T15:39:40.557Z,99601.88
2022-12-08T15:43:02.632Z,99604.44
2022-12-08T15:46:26.897Z,99601.03
2022-12-08T15:49:51.627Z,99612.91
2022-12-08T15:53:13.783Z,99628.19
2022-12-08T15:56:50.686Z,99629.88
2022-12-08T16:08:04.553Z,99644.34
2022-12-08T16:12:05.947Z,99653.75
2022-12-08T16:19:15.424Z,99668.31
2022-12-08T16:22:59.591Z,99671.72
2022-12-08T16:27:35.088Z,99680.25
2022-12-08T16:30:09.349Z,99689.66
2022-12-08T16:33:30.964Z,99693.06
2022-12-08T16:36:53.741Z,99684.56
2022-12-08T16:40:15.963Z,99689.66
2022-12-08T16:43:39.149Z,99703.28
2022-12-08T16:47:09.496Z,99695.63
2022-12-08T16:50:33.964Z,99705.00
2022-12-08T16:53:57.049Z,99708.41
2022-12-08T16:57:19.136Z,99713.50
2022-12-08T17:00:43.068Z,99724.56
2022-12-08T17:07:49.443Z,99735.66
2022-12-08T17:11:20.959Z,99729.69
2022-12-08T17:14:43.008Z,99736.47
2022-12-08T17:18:06.840Z,99731.41
2022-12-08T17:21:28.971Z,99744.16
2022-12-08T17:24:51.100Z,99739.88
2022-12-08T17:28:26.481Z,99749.28
2022-12-08T17:31:55.637Z,99758.66
2022-12-08T17:35:20.268Z,99761.22
2022-12-08T17:38:42.061Z,99773.09
2022-12-08T17:42:04.345Z,99765.47
2022-12-08T17:45:26.387Z,99780.78
2022-12-08T17:48:48.759Z,99777.38
2022-12-08T17:52:12.904Z,99774.84
2022-12-08T17:55:35.542Z,99783.31
2022-12-08T17:58:57.540Z,99788.44
2022-12-08T18:02:19.255Z,99797.81
2022-12-08T18:05:41.298Z,99799.50
2022-12-08T18:09:07.058Z,99805.47
2022-12-08T18:12:30.129Z,99811.44
2022-12-08T18:15:52.079Z,99808.00
2022-12-08T18:19:15.104Z,99827.59
2022-12-08T18:22:37.283Z,99808.88
2022-12-08T18:26:00.854Z,99823.31
2022-12-08T18:29:23.681Z,99845.44
2022-12-08T18:32:45.806Z,99852.25
2022-12-08T18:36:09.960Z,99840.31
2022-12-08T18:39:33.806Z,99868.38
2022-12-08T18:42:58.679Z,99859.84
2022-12-08T18:46:21.543Z,99860.66
2022-12-08T18:49:43.727Z,99870.03
2022-12-08T18:53:05.860Z,99878.53
2022-12-08T18:56:30.507Z,99870.84
2022-12-08T18:59:53.886Z,99881.03
2022-12-08T19:03:15.652Z,99877.56
2022-12-08T19:06:39.798Z,99887.75
2022-12-08T19:10:01.915Z,99880.91
2022-12-08T19:13:24.068Z,99884.25
2022-12-08T19:16:47.491Z,99881.72
2022-12-08T19:20:10.712Z,99887.66
2022-12-08T19:23:32.401Z,99889.31
2022-12-08T19:26:54.870Z,99882.50
2022-12-08T19:30:17.312Z,99881.63
2022-12-08T19:33:40.809Z,99885.81
2022-12-08T19:37:02.756Z,99896.03
2022-12-08T19:40:42.571Z,99880.72
2022-12-08T19:44:22.243Z,99906.28
2022-12-08T19:47:44.497Z,99908.81
2022-12-08T19:51:08.052Z,99910.50
2022-12-08T19:54:29.838Z,99915.59
2022-12-08T19:57:52.393Z,99916.44
2022-12-08T20:01:14.555Z,99916.44
2022-12-08T20:04:36.713Z,99916.44
2022-12-08T20:08:00.819Z,99919.84
2022-12-08T20:11:22.944Z,99918.13
2022-12-08T20:14:46.223Z,99924.09
2022-12-08T20:18:08.652Z,99931.75
2022-12-08T20:21:30.930Z,99930.91
2022-12-08T20:24:59.440Z,99935.94
2022-12-08T20:28:22.894Z,99938.50
2022-12-08T20:31:45.014Z,99942.75
2022-12-08T20:35:07.453Z,99947.00
2022-12-08T20:38:30.571Z,99947.84
2022-12-08T20:41:56.151Z,99938.44
2022-12-08T20:45:17.991Z,99934.97
2022-12-08T20:48:40.035Z,99948.59
2022-12-08T20:52:02.243Z,99946.91
2022-12-08T20:55:24.282Z,99940.06
2022-12-08T20:58:48.316Z,99933.16
2022-12-08T21:02:13.737Z,99939.16
2022-12-08T21:05:39.020Z,99927.19
2022-12-08T21:09:01.103Z,99922.06
2022-12-08T21:12:23.128Z,99928.00
2022-12-08T21:15:47.895Z,99921.16
2022-12-08T21:19:10.212Z,99926.25
2022-12-08T21:22:32.137Z,99935.66
2022-12-08T21:25:56.457Z,99930.50
2022-12-08T21:29:18.278Z,99921.94
2022-12-08T21:32:41.389Z,99925.34
2022-12-08T21:36:05.018Z,99925.38
2022-12-08T21:39:27.059Z,99927.91
2022-12-08T21:42:48.988Z,99920.19
2022-12-08T21:46:16.805Z,99909.94
2022-12-08T21:49:42.811Z,99915.00
2022-12-08T21:53:04.925Z,99882.69
2022-12-08T21:56:27.065Z,99917.53
2022-12-08T21:59:49.104Z,99902.22
2022-12-08T22:03:14.307Z,99906.44
2022-12-08T22:06:38.242Z,99908.13
2022-12-08T22:10:00.011Z,99907.19
2022-12-08T22:13:22.036Z,99917.44
2022-12-08T22:16:44.810Z,99920.78
2022-12-08T22:20:09.403Z,99917.38
2022-12-08T22:23:32.836Z,99908.03
2022-12-08T22:26:55.242Z,99912.22
2022-12-08T22:30:17.497Z,99907.94
2022-12-08T22:33:40.319Z,99913.06
2022-12-08T22:37:02.509Z,99903.69
2022-12-08T22:40:25.862Z,99908.75
2022-12-08T22:43:48.662Z,99898.50
2022-12-08T22:47:10.916Z,99906.16
2022-12-08T22:50:32.679Z,99906.13
2022-12-08T22:53:54.753Z,99912.13
2022-12-08T22:57:18.265Z,99910.38
2022-12-08T23:00:40.193Z,99912.94
2022-12-08T23:04:02.930Z,99918.91
2022-12-08T23:07:24.801Z,99920.59
2022-12-08T23:10:48.413Z,99912.09
2022-12-08T23:14:11.694Z,99904.50
2022-12-08T23:17:33.907Z,99926.63
2022-12-08T23:20:56.256Z,99922.34
2022-12-08T23:24:18.155Z,99927.47
2022-12-08T23:27:40.507Z,99927.53
2022-12-08T23:31:08.876Z,99924.09
2022-12-08T23:34:30.784Z,99925.81
2022-12-08T23:37:53.755Z,99927.53
2022-12-08T23:41:17.256Z,99927.56
2022-12-08T23:44:39.699Z,99931.84
2022-12-08T23:48:03.195Z,99933.56
2022-12-08T23:51:25.262Z,99919.88
2022-12-08T23:54:48.210Z,99925.00
2022-12-08T23:58:09.875Z,99931.03
